Terminal Aerodrome Forecast
Issued by NWS Sterling, VA

Home | Current Version | Previous Version | Text Only | Print | Product List | Glossary On
Versions: 1 2 3 4 5 6 7 8 9 10 11 12 13 14 15
846
FTUS41 KLWX 042343
TAFCHO
TAF
KCHO 042343Z 0500/0524 17004KT P6SM OVC040
     FM050200 17004KT P6SM -RAPL OVC025
     FM050500 18006KT 3SM -RA BR OVC008
     FM050900 19005KT 3SM BR OVC008
     FM051400 25004KT P6SM BKN050
     FM051700 31007KT P6SM BKN250=

USA.gov is the U.S. government's official web portal to all federal, state and local government web resources and services.